Terminal Aerodrome Forecast
Issued by NWS

Home | Current Version | Previous Version | Text Only | Print | Product List | Glossary On
Versions: 1 2 3 4 5 6 7 8 9 10 11 12 13 14 15 16 17 18 19 20 21 22
000
FTUS41 KPHI 181100
TAFMIV
TAF
KMIV 181120Z 1812/1912 04007KT P6SM OVC020
     FM181500 07007KT P6SM BKN028
     FM181800 09006KT P6SM BKN200
     FM182100 13007KT P6SM OVC150
     FM190100 00000KT P6SM BKN150
     FM190800 00000KT 5SM BR SKC=

USA.gov is the U.S. government's official web portal to all federal, state and local government web resources and services.